sensor_id;sensor_type;location;lat;lon;timestamp;P1;durP1;ratioP1;P2;durP2;ratioP2
49296;SDS011;35163;48.878;18.040;2023-07-31T00:01:38;6.47;;;2.72;;
49296;SDS011;35163;48.878;18.040;2023-07-31T00:04:04;8.45;;;3.08;;
49296;SDS011;35163;48.878;18.040;2023-07-31T00:06:31;6.07;;;2.78;;
49296;SDS011;35163;48.878;18.040;2023-07-31T00:08:58;5.97;;;2.83;;
49296;SDS011;35163;48.878;18.040;2023-07-31T00:11:25;5.60;;;2.20;;
49296;SDS011;35163;48.878;18.040;2023-07-31T00:13:52;4.22;;;2.45;;
49296;SDS011;35163;48.878;18.040;2023-07-31T00:16:19;5.88;;;2.88;;
49296;SDS011;35163;48.878;18.040;2023-07-31T00:18:46;9.27;;;2.72;;
49296;SDS011;35163;48.878;18.040;2023-07-31T00:21:13;6.00;;;2.70;;
49296;SDS011;35163;48.878;18.040;2023-07-31T00:23:40;10.18;;;3.30;;
49296;SDS011;35163;48.878;18.040;2023-07-31T00:26:06;10.10;;;3.15;;
49296;SDS011;35163;48.878;18.040;2023-07-31T00:28:33;12.98;;;2.80;;
49296;SDS011;35163;48.878;18.040;2023-07-31T00:31:00;5.95;;;3.17;;
49296;SDS011;35163;48.878;18.040;2023-07-31T00:33:28;10.15;;;3.22;;
49296;SDS011;35163;48.878;18.040;2023-07-31T00:35:54;9.27;;;3.30;;
49296;SDS011;35163;48.878;18.040;2023-07-31T00:38:21;6.78;;;3.22;;
49296;SDS011;35163;48.878;18.040;2023-07-31T00:40:48;8.23;;;3.50;;
49296;SDS011;35163;48.878;18.040;2023-07-31T00:43:14;6.32;;;2.83;;
49296;SDS011;35163;48.878;18.040;2023-07-31T00:45:41;6.28;;;2.80;;
49296;SDS011;35163;48.878;18.040;2023-07-31T00:48:08;6.57;;;2.45;;
49296;SDS011;35163;48.878;18.040;2023-07-31T00:50:35;10.55;;;2.40;;
49296;SDS011;35163;48.878;18.040;2023-07-31T00:53:02;3.58;;;1.98;;
49296;SDS011;35163;48.878;18.040;2023-07-31T00:55:29;5.15;;;2.30;;
49296;SDS011;35163;48.878;18.040;2023-07-31T00:57:56;6.05;;;2.13;;
49296;SDS011;35163;48.878;18.040;2023-07-31T01:00:23;7.05;;;2.15;;
49296;SDS011;35163;48.878;18.040;2023-07-31T01:02:50;5.90;;;2.47;;
49296;SDS011;35163;48.878;18.040;2023-07-31T01:05:22;7.10;;;2.30;;
49296;SDS011;35163;48.878;18.040;2023-07-31T01:13:40;8.77;;;2.55;;
49296;SDS011;35163;48.878;18.040;2023-07-31T01:16:08;6.28;;;2.53;;
49296;SDS011;35163;48.878;18.040;2023-07-31T01:18:35;8.98;;;2.45;;
49296;SDS011;35163;48.878;18.040;2023-07-31T01:27:21;6.68;;;2.42;;
49296;SDS011;35163;48.878;18.040;2023-07-31T01:32:39;7.95;;;2.47;;
49296;SDS011;35163;48.878;18.040;2023-07-31T01:35:08;7.95;;;2.67;;
49296;SDS011;35163;48.878;18.040;2023-07-31T01:37:36;9.40;;;2.97;;
49296;SDS011;35163;48.878;18.040;2023-07-31T01:40:02;5.75;;;2.40;;
49296;SDS011;35163;48.878;18.040;2023-07-31T01:42:30;4.95;;;2.38;;
49296;SDS011;35163;48.878;18.040;2023-07-31T01:44:57;4.57;;;2.40;;
49296;SDS011;35163;48.878;18.040;2023-07-31T01:47:24;4.53;;;2.53;;
49296;SDS011;35163;48.878;18.040;2023-07-31T01:49:50;4.97;;;2.30;;
49296;SDS011;35163;48.878;18.040;2023-07-31T01:52:17;4.05;;;2.15;;
49296;SDS011;35163;48.878;18.040;2023-07-31T01:54:44;8.07;;;2.25;;
49296;SDS011;35163;48.878;18.040;2023-07-31T01:57:10;3.70;;;2.03;;
49296;SDS011;35163;48.878;18.040;2023-07-31T01:59:37;4.30;;;1.95;;
49296;SDS011;35163;48.878;18.040;2023-07-31T02:02:04;4.25;;;1.75;;
49296;SDS011;35163;48.878;18.040;2023-07-31T02:04:31;8.27;;;2.60;;
49296;SDS011;35163;48.878;18.040;2023-07-31T02:06:58;5.57;;;2.38;;
49296;SDS011;35163;48.878;18.040;2023-07-31T02:09:24;7.60;;;2.53;;
49296;SDS011;35163;48.878;18.040;2023-07-31T02:11:51;6.90;;;2.65;;
49296;SDS011;35163;48.878;18.040;2023-07-31T02:14:17;6.82;;;2.30;;
49296;SDS011;35163;48.878;18.040;2023-07-31T02:16:44;6.03;;;2.78;;
49296;SDS011;35163;48.878;18.040;2023-07-31T02:19:11;8.07;;;2.67;;
49296;SDS011;35163;48.878;18.040;2023-07-31T02:21:37;3.10;;;1.63;;
49296;SDS011;35163;48.878;18.040;2023-07-31T02:24:04;8.27;;;2.05;;
49296;SDS011;35163;48.878;18.040;2023-07-31T02:26:31;7.68;;;2.97;;
49296;SDS011;35163;48.878;18.040;2023-07-31T02:28:57;5.88;;;2.75;;
49296;SDS011;35163;48.878;18.040;2023-07-31T02:31:24;8.07;;;2.55;;
49296;SDS011;35163;48.878;18.040;2023-07-31T02:33:51;5.60;;;2.42;;
49296;SDS011;35163;48.878;18.040;2023-07-31T02:36:18;6.20;;;2.30;;
49296;SDS011;35163;48.878;18.040;2023-07-31T02:38:45;7.13;;;2.72;;
49296;SDS011;35163;48.878;18.040;2023-07-31T02:41:12;5.95;;;2.38;;
49296;SDS011;35163;48.878;18.040;2023-07-31T02:43:38;6.10;;;2.55;;
49296;SDS011;35163;48.878;18.040;2023-07-31T02:46:05;7.60;;;2.40;;
49296;SDS011;35163;48.878;18.040;2023-07-31T02:48:32;8.20;;;2.60;;
49296;SDS011;35163;48.878;18.040;2023-07-31T02:50:58;15.07;;;2.28;;
49296;SDS011;35163;48.878;18.040;2023-07-31T02:53:25;5.18;;;2.00;;
49296;SDS011;35163;48.878;18.040;2023-07-31T02:55:52;5.13;;;2.20;;
49296;SDS011;35163;48.878;18.040;2023-07-31T02:58:18;4.55;;;1.70;;
49296;SDS011;35163;48.878;18.040;2023-07-31T03:00:45;4.70;;;2.28;;
49296;SDS011;35163;48.878;18.040;2023-07-31T03:03:12;3.33;;;1.90;;
49296;SDS011;35163;48.878;18.040;2023-07-31T03:05:39;5.32;;;2.40;;
49296;SDS011;35163;48.878;18.040;2023-07-31T03:08:05;7.45;;;2.55;;
49296;SDS011;35163;48.878;18.040;2023-07-31T03:10:32;6.05;;;2.70;;
49296;SDS011;35163;48.878;18.040;2023-07-31T03:12:59;11.05;;;2.75;;
49296;SDS011;35163;48.878;18.040;2023-07-31T03:15:25;5.90;;;2.55;;
49296;SDS011;35163;48.878;18.040;2023-07-31T03:17:52;5.85;;;2.75;;
49296;SDS011;35163;48.878;18.040;2023-07-31T03:20:19;4.03;;;2.40;;
49296;SDS011;35163;48.878;18.040;2023-07-31T03:22:46;5.63;;;1.88;;
49296;SDS011;35163;48.878;18.040;2023-07-31T03:25:12;6.68;;;2.38;;
49296;SDS011;35163;48.878;18.040;2023-07-31T03:27:40;3.90;;;2.00;;
49296;SDS011;35163;48.878;18.040;2023-07-31T03:30:07;7.25;;;2.28;;
49296;SDS011;35163;48.878;18.040;2023-07-31T03:32:34;6.68;;;2.20;;
49296;SDS011;35163;48.878;18.040;2023-07-31T03:35:01;4.75;;;1.80;;
49296;SDS011;35163;48.878;18.040;2023-07-31T03:37:27;5.07;;;2.17;;
49296;SDS011;35163;48.878;18.040;2023-07-31T03:39:55;6.47;;;2.15;;
49296;SDS011;35163;48.878;18.040;2023-07-31T03:42:22;5.55;;;1.98;;
49296;SDS011;35163;48.878;18.040;2023-07-31T03:44:49;5.43;;;2.10;;
49296;SDS011;35163;48.878;18.040;2023-07-31T03:47:16;5.10;;;1.40;;
49296;SDS011;35163;48.878;18.040;2023-07-31T03:49:43;4.90;;;1.80;;
49296;SDS011;35163;48.878;18.040;2023-07-31T03:52:09;7.55;;;1.85;;
49296;SDS011;35163;48.878;18.040;2023-07-31T03:54:36;7.65;;;1.85;;
49296;SDS011;35163;48.878;18.040;2023-07-31T03:57:03;5.43;;;2.25;;
49296;SDS011;35163;48.878;18.040;2023-07-31T03:59:30;7.43;;;1.48;;
49296;SDS011;35163;48.878;18.040;2023-07-31T04:01:56;2.80;;;1.83;;
49296;SDS011;35163;48.878;18.040;2023-07-31T04:04:23;4.57;;;1.80;;
49296;SDS011;35163;48.878;18.040;2023-07-31T04:06:50;3.72;;;1.95;;
49296;SDS011;35163;48.878;18.040;2023-07-31T04:09:17;6.68;;;2.20;;
49296;SDS011;35163;48.878;18.040;2023-07-31T04:11:43;4.30;;;1.80;;
49296;SDS011;35163;48.878;18.040;2023-07-31T04:14:10;6.22;;;2.13;;
49296;SDS011;35163;48.878;18.040;2023-07-31T04:16:37;8.32;;;2.53;;
49296;SDS011;35163;48.878;18.040;2023-07-31T04:19:04;10.43;;;2.20;;
49296;SDS011;35163;48.878;18.040;2023-07-31T04:21:30;5.25;;;1.77;;
49296;SDS011;35163;48.878;18.040;2023-07-31T04:23:57;3.97;;;1.95;;
49296;SDS011;35163;48.878;18.040;2023-07-31T04:26:24;4.55;;;1.92;;
49296;SDS011;35163;48.878;18.040;2023-07-31T04:28:51;7.70;;;2.40;;
49296;SDS011;35163;48.878;18.040;2023-07-31T04:31:18;2.67;;;1.65;;
49296;SDS011;35163;48.878;18.040;2023-07-31T04:33:44;5.57;;;2.42;;
49296;SDS011;35163;48.878;18.040;2023-07-31T04:36:11;5.15;;;1.90;;
49296;SDS011;35163;48.878;18.040;2023-07-31T04:38:38;3.83;;;1.98;;
49296;SDS011;35163;48.878;18.040;2023-07-31T04:41:05;4.50;;;1.90;;
49296;SDS011;35163;48.878;18.040;2023-07-31T04:43:32;4.05;;;2.00;;
49296;SDS011;35163;48.878;18.040;2023-07-31T04:45:58;7.22;;;2.25;;
49296;SDS011;35163;48.878;18.040;2023-07-31T04:48:25;9.35;;;2.55;;
49296;SDS011;35163;48.878;18.040;2023-07-31T04:50:52;4.43;;;2.28;;
49296;SDS011;35163;48.878;18.040;2023-07-31T04:53:18;6.78;;;2.40;;
49296;SDS011;35163;48.878;18.040;2023-07-31T04:55:45;6.60;;;2.38;;
49296;SDS011;35163;48.878;18.040;2023-07-31T04:58:12;4.15;;;2.13;;
49296;SDS011;35163;48.878;18.040;2023-07-31T05:00:38;7.88;;;1.90;;
49296;SDS011;35163;48.878;18.040;2023-07-31T05:03:05;5.10;;;2.25;;
49296;SDS011;35163;48.878;18.040;2023-07-31T05:05:33;4.75;;;2.20;;
49296;SDS011;35163;48.878;18.040;2023-07-31T05:08:00;7.25;;;2.25;;
49296;SDS011;35163;48.878;18.040;2023-07-31T05:10:27;9.00;;;2.47;;
49296;SDS011;35163;48.878;18.040;2023-07-31T05:12:53;8.25;;;2.70;;
49296;SDS011;35163;48.878;18.040;2023-07-31T05:15:20;8.60;;;2.78;;
49296;SDS011;35163;48.878;18.040;2023-07-31T05:17:47;5.63;;;2.58;;
49296;SDS011;35163;48.878;18.040;2023-07-31T05:20:14;5.80;;;2.97;;
49296;SDS011;35163;48.878;18.040;2023-07-31T05:22:41;8.27;;;2.30;;
49296;SDS011;35163;48.878;18.040;2023-07-31T05:25:08;7.68;;;2.80;;
49296;SDS011;35163;48.878;18.040;2023-07-31T05:27:35;4.10;;;2.38;;
49296;SDS011;35163;48.878;18.040;2023-07-31T05:30:01;5.30;;;2.20;;
49296;SDS011;35163;48.878;18.040;2023-07-31T05:32:28;6.35;;;2.63;;
49296;SDS011;35163;48.878;18.040;2023-07-31T05:34:55;9.05;;;2.70;;
49296;SDS011;35163;48.878;18.040;2023-07-31T05:37:22;9.20;;;2.05;;
49296;SDS011;35163;48.878;18.040;2023-07-31T05:39:49;8.68;;;2.20;;
49296;SDS011;35163;48.878;18.040;2023-07-31T05:42:16;5.15;;;2.30;;
49296;SDS011;35163;48.878;18.040;2023-07-31T05:44:42;7.43;;;2.30;;
49296;SDS011;35163;48.878;18.040;2023-07-31T05:47:10;5.18;;;2.03;;
49296;SDS011;35163;48.878;18.040;2023-07-31T05:49:37;7.53;;;1.98;;
49296;SDS011;35163;48.878;18.040;2023-07-31T05:52:04;6.60;;;1.60;;
49296;SDS011;35163;48.878;18.040;2023-07-31T05:54:31;8.70;;;1.80;;
49296;SDS011;35163;48.878;18.040;2023-07-31T05:56:58;6.68;;;2.20;;
49296;SDS011;35163;48.878;18.040;2023-07-31T05:59:25;4.88;;;1.70;;
49296;SDS011;35163;48.878;18.040;2023-07-31T06:01:51;3.42;;;1.75;;
49296;SDS011;35163;48.878;18.040;2023-07-31T06:04:19;4.38;;;1.63;;
49296;SDS011;35163;48.878;18.040;2023-07-31T06:06:50;5.63;;;1.98;;
49296;SDS011;35163;48.878;18.040;2023-07-31T06:09:16;3.25;;;1.60;;
49296;SDS011;35163;48.878;18.040;2023-07-31T06:11:43;2.13;;;1.35;;
49296;SDS011;35163;48.878;18.040;2023-07-31T06:14:10;8.18;;;2.35;;
49296;SDS011;35163;48.878;18.040;2023-07-31T06:16:37;4.97;;;1.50;;
49296;SDS011;35163;48.878;18.040;2023-07-31T06:19:04;4.78;;;1.75;;
49296;SDS011;35163;48.878;18.040;2023-07-31T06:21:30;4.55;;;1.88;;
49296;SDS011;35163;48.878;18.040;2023-07-31T06:23:57;2.97;;;1.45;;
49296;SDS011;35163;48.878;18.040;2023-07-31T06:26:24;4.38;;;1.77;;
49296;SDS011;35163;48.878;18.040;2023-07-31T06:28:51;3.47;;;1.33;;
49296;SDS011;35163;48.878;18.040;2023-07-31T06:31:17;3.85;;;1.50;;
49296;SDS011;35163;48.878;18.040;2023-07-31T06:33:47;3.10;;;1.35;;
49296;SDS011;35163;48.878;18.040;2023-07-31T06:36:13;3.30;;;1.40;;
49296;SDS011;35163;48.878;18.040;2023-07-31T06:38:40;6.00;;;1.77;;
49296;SDS011;35163;48.878;18.040;2023-07-31T06:41:07;4.78;;;1.50;;
49296;SDS011;35163;48.878;18.040;2023-07-31T06:43:33;3.60;;;1.48;;
49296;SDS011;35163;48.878;18.040;2023-07-31T06:46:06;7.63;;;1.48;;
49296;SDS011;35163;48.878;18.040;2023-07-31T06:48:33;13.43;;;2.75;;
49296;SDS011;35163;48.878;18.040;2023-07-31T06:51:00;10.73;;;2.13;;
49296;SDS011;35163;48.878;18.040;2023-07-31T06:53:28;7.18;;;1.70;;
49296;SDS011;35163;48.878;18.040;2023-07-31T06:55:55;3.20;;;1.25;;
49296;SDS011;35163;48.878;18.040;2023-07-31T06:58:21;6.95;;;1.52;;
49296;SDS011;35163;48.878;18.040;2023-07-31T07:00:48;7.32;;;1.50;;
49296;SDS011;35163;48.878;18.040;2023-07-31T07:03:18;4.47;;;1.52;;
49296;SDS011;35163;48.878;18.040;2023-07-31T07:05:45;3.05;;;1.35;;
49296;SDS011;35163;48.878;18.040;2023-07-31T07:08:12;10.68;;;1.55;;
49296;SDS011;35163;48.878;18.040;2023-07-31T07:10:38;4.85;;;1.75;;
49296;SDS011;35163;48.878;18.040;2023-07-31T07:13:05;3.75;;;1.45;;
49296;SDS011;35163;48.878;18.040;2023-07-31T07:15:32;3.60;;;1.60;;
49296;SDS011;35163;48.878;18.040;2023-07-31T07:17:59;3.38;;;1.35;;
49296;SDS011;35163;48.878;18.040;2023-07-31T07:20:27;3.42;;;1.58;;
49296;SDS011;35163;48.878;18.040;2023-07-31T07:22:54;2.55;;;1.38;;
49296;SDS011;35163;48.878;18.040;2023-07-31T07:25:21;5.55;;;1.65;;
49296;SDS011;35163;48.878;18.040;2023-07-31T07:27:47;4.78;;;1.50;;
49296;SDS011;35163;48.878;18.040;2023-07-31T07:30:14;7.40;;;1.67;;
49296;SDS011;35163;48.878;18.040;2023-07-31T07:32:41;2.95;;;1.40;;
49296;SDS011;35163;48.878;18.040;2023-07-31T07:35:07;2.95;;;1.50;;
49296;SDS011;35163;48.878;18.040;2023-07-31T07:37:34;2.70;;;1.40;;
49296;SDS011;35163;48.878;18.040;2023-07-31T07:40:01;2.55;;;1.60;;
49296;SDS011;35163;48.878;18.040;2023-07-31T07:42:28;5.40;;;1.48;;
49296;SDS011;35163;48.878;18.040;2023-07-31T07:44:55;3.97;;;1.40;;
49296;SDS011;35163;48.878;18.040;2023-07-31T07:47:22;6.25;;;1.55;;
49296;SDS011;35163;48.878;18.040;2023-07-31T07:49:48;2.47;;;1.33;;
49296;SDS011;35163;48.878;18.040;2023-07-31T07:52:18;4.65;;;1.60;;
49296;SDS011;35163;48.878;18.040;2023-07-31T07:54:45;3.00;;;1.48;;
49296;SDS011;35163;48.878;18.040;2023-07-31T07:57:12;5.57;;;1.77;;
49296;SDS011;35163;48.878;18.040;2023-07-31T07:59:38;6.43;;;1.80;;
49296;SDS011;35163;48.878;18.040;2023-07-31T08:02:05;5.03;;;1.58;;
49296;SDS011;35163;48.878;18.040;2023-07-31T08:04:32;15.25;;;1.92;;
49296;SDS011;35163;48.878;18.040;2023-07-31T08:06:59;5.07;;;1.77;;
49296;SDS011;35163;48.878;18.040;2023-07-31T08:09:25;5.18;;;1.80;;
49296;SDS011;35163;48.878;18.040;2023-07-31T08:11:52;6.32;;;2.05;;
49296;SDS011;35163;48.878;18.040;2023-07-31T08:14:19;4.65;;;1.40;;
49296;SDS011;35163;48.878;18.040;2023-07-31T08:16:45;3.78;;;1.48;;
49296;SDS011;35163;48.878;18.040;2023-07-31T08:19:12;3.63;;;1.77;;
49296;SDS011;35163;48.878;18.040;2023-07-31T08:21:39;7.85;;;1.70;;
49296;SDS011;35163;48.878;18.040;2023-07-31T08:24:06;4.75;;;2.03;;
49296;SDS011;35163;48.878;18.040;2023-07-31T08:26:34;6.22;;;1.95;;
49296;SDS011;35163;48.878;18.040;2023-07-31T08:29:01;5.78;;;1.80;;
49296;SDS011;35163;48.878;18.040;2023-07-31T08:31:27;3.20;;;1.40;;
49296;SDS011;35163;48.878;18.040;2023-07-31T08:33:55;4.57;;;1.52;;
49296;SDS011;35163;48.878;18.040;2023-07-31T08:36:22;6.47;;;2.17;;
49296;SDS011;35163;48.878;18.040;2023-07-31T08:38:49;6.50;;;1.50;;
49296;SDS011;35163;48.878;18.040;2023-07-31T08:41:16;2.97;;;1.50;;
49296;SDS011;35163;48.878;18.040;2023-07-31T08:43:44;5.03;;;1.30;;
49296;SDS011;35163;48.878;18.040;2023-07-31T08:46:12;3.22;;;1.52;;
49296;SDS011;35163;48.878;18.040;2023-07-31T08:48:41;5.95;;;1.73;;
49296;SDS011;35163;48.878;18.040;2023-07-31T08:51:08;4.82;;;1.60;;
49296;SDS011;35163;48.878;18.040;2023-07-31T08:53:35;5.43;;;1.58;;
49296;SDS011;35163;48.878;18.040;2023-07-31T08:56:02;2.75;;;1.40;;
49296;SDS011;35163;48.878;18.040;2023-07-31T08:58:31;4.25;;;1.40;;
49296;SDS011;35163;48.878;18.040;2023-07-31T09:01:01;8.13;;;1.70;;
49296;SDS011;35163;48.878;18.040;2023-07-31T09:03:33;4.97;;;1.60;;
49296;SDS011;35163;48.878;18.040;2023-07-31T09:06:02;3.50;;;1.52;;
49296;SDS011;35163;48.878;18.040;2023-07-31T09:08:30;4.95;;;1.60;;
49296;SDS011;35163;48.878;18.040;2023-07-31T09:11:01;3.63;;;1.25;;
49296;SDS011;35163;48.878;18.040;2023-07-31T09:13:30;3.63;;;1.30;;
49296;SDS011;35163;48.878;18.040;2023-07-31T09:15:57;5.13;;;1.25;;
49296;SDS011;35163;48.878;18.040;2023-07-31T09:18:24;4.40;;;1.60;;
49296;SDS011;35163;48.878;18.040;2023-07-31T09:21:04;3.92;;;1.38;;
49296;SDS011;35163;48.878;18.040;2023-07-31T09:23:44;3.30;;;1.23;;
49296;SDS011;35163;48.878;18.040;2023-07-31T09:26:12;4.68;;;1.73;;
49296;SDS011;35163;48.878;18.040;2023-07-31T09:34:08;4.32;;;1.42;;
49296;SDS011;35163;48.878;18.040;2023-07-31T09:36:41;4.55;;;1.50;;
49296;SDS011;35163;48.878;18.040;2023-07-31T09:39:12;5.53;;;1.35;;
49296;SDS011;35163;48.878;18.040;2023-07-31T09:41:40;5.63;;;1.48;;
49296;SDS011;35163;48.878;18.040;2023-07-31T09:44:11;4.22;;;1.50;;
49296;SDS011;35163;48.878;18.040;2023-07-31T09:46:38;5.07;;;1.55;;
49296;SDS011;35163;48.878;18.040;2023-07-31T09:49:09;5.40;;;1.50;;
49296;SDS011;35163;48.878;18.040;2023-07-31T09:51:40;4.00;;;1.50;;
49296;SDS011;35163;48.878;18.040;2023-07-31T09:54:12;4.35;;;1.75;;
49296;SDS011;35163;48.878;18.040;2023-07-31T09:56:43;4.80;;;1.60;;
49296;SDS011;35163;48.878;18.040;2023-07-31T09:59:12;4.72;;;1.58;;
49296;SDS011;35163;48.878;18.040;2023-07-31T10:01:46;4.80;;;1.35;;
49296;SDS011;35163;48.878;18.040;2023-07-31T10:04:13;8.00;;;1.80;;
49296;SDS011;35163;48.878;18.040;2023-07-31T10:06:40;3.50;;;1.52;;
49296;SDS011;35163;48.878;18.040;2023-07-31T10:09:10;10.90;;;1.67;;
49296;SDS011;35163;48.878;18.040;2023-07-31T10:11:42;4.90;;;1.20;;
49296;SDS011;35163;48.878;18.040;2023-07-31T10:14:18;6.20;;;1.30;;
49296;SDS011;35163;48.878;18.040;2023-07-31T10:16:46;4.20;;;1.38;;
49296;SDS011;35163;48.878;18.040;2023-07-31T10:19:13;4.45;;;1.40;;
49296;SDS011;35163;48.878;18.040;2023-07-31T10:21:41;5.97;;;1.98;;
49296;SDS011;35163;48.878;18.040;2023-07-31T10:24:09;4.75;;;1.45;;
49296;SDS011;35163;48.878;18.040;2023-07-31T10:26:36;7.55;;;1.55;;
49296;SDS011;35163;48.878;18.040;2023-07-31T10:29:05;4.10;;;1.60;;
49296;SDS011;35163;48.878;18.040;2023-07-31T10:31:33;2.88;;;1.48;;
49296;SDS011;35163;48.878;18.040;2023-07-31T10:34:01;4.22;;;1.38;;
49296;SDS011;35163;48.878;18.040;2023-07-31T10:36:29;7.85;;;1.50;;
49296;SDS011;35163;48.878;18.040;2023-07-31T10:38:56;3.95;;;1.38;;
49296;SDS011;35163;48.878;18.040;2023-07-31T10:41:29;5.07;;;1.10;;
49296;SDS011;35163;48.878;18.040;2023-07-31T10:44:00;3.63;;;1.35;;
49296;SDS011;35163;48.878;18.040;2023-07-31T10:46:27;7.00;;;1.60;;
49296;SDS011;35163;48.878;18.040;2023-07-31T10:48:58;6.70;;;2.20;;
49296;SDS011;35163;48.878;18.040;2023-07-31T10:51:36;5.57;;;1.88;;
49296;SDS011;35163;48.878;18.040;2023-07-31T10:54:20;3.50;;;1.50;;
49296;SDS011;35163;48.878;18.040;2023-07-31T10:56:49;3.17;;;1.42;;
49296;SDS011;35163;48.878;18.040;2023-07-31T10:59:16;3.47;;;1.25;;
49296;SDS011;35163;48.878;18.040;2023-07-31T11:01:54;4.30;;;1.52;;
49296;SDS011;35163;48.878;18.040;2023-07-31T11:06:57;3.70;;;1.27;;
49296;SDS011;35163;48.878;18.040;2023-07-31T11:09:30;7.45;;;1.42;;
49296;SDS011;35163;48.878;18.040;2023-07-31T11:12:00;6.10;;;1.40;;
49296;SDS011;35163;48.878;18.040;2023-07-31T11:14:27;2.33;;;1.00;;
49296;SDS011;35163;48.878;18.040;2023-07-31T11:16:54;4.65;;;1.48;;
49296;SDS011;35163;48.878;18.040;2023-07-31T11:19:24;2.92;;;0.90;;
49296;SDS011;35163;48.878;18.040;2023-07-31T11:21:51;5.20;;;1.55;;
49296;SDS011;35163;48.878;18.040;2023-07-31T11:24:19;6.30;;;1.30;;
49296;SDS011;35163;48.878;18.040;2023-07-31T11:26:50;3.50;;;1.27;;
49296;SDS011;35163;48.878;18.040;2023-07-31T11:29:18;4.55;;;1.45;;
49296;SDS011;35163;48.878;18.040;2023-07-31T11:31:46;4.65;;;1.50;;
49296;SDS011;35163;48.878;18.040;2023-07-31T11:34:14;10.55;;;1.63;;
49296;SDS011;35163;48.878;18.040;2023-07-31T11:36:42;11.13;;;1.30;;
49296;SDS011;35163;48.878;18.040;2023-07-31T11:39:19;2.90;;;1.20;;
49296;SDS011;35163;48.878;18.040;2023-07-31T11:41:46;1.60;;;0.95;;
49296;SDS011;35163;48.878;18.040;2023-07-31T11:44:12;3.70;;;1.23;;
49296;SDS011;35163;48.878;18.040;2023-07-31T11:46:56;3.63;;;1.20;;
49296;SDS011;35163;48.878;18.040;2023-07-31T11:49:23;4.80;;;1.40;;
49296;SDS011;35163;48.878;18.040;2023-07-31T11:51:50;4.00;;;1.35;;
49296;SDS011;35163;48.878;18.040;2023-07-31T11:54:16;3.85;;;0.90;;
49296;SDS011;35163;48.878;18.040;2023-07-31T11:56:44;3.33;;;1.30;;
49296;SDS011;35163;48.878;18.040;2023-07-31T11:59:11;3.83;;;0.90;;
49296;SDS011;35163;48.878;18.040;2023-07-31T12:01:39;3.58;;;1.15;;
49296;SDS011;35163;48.878;18.040;2023-07-31T12:04:06;5.03;;;2.28;;
49296;SDS011;35163;48.878;18.040;2023-07-31T12:06:33;5.10;;;1.73;;
49296;SDS011;35163;48.878;18.040;2023-07-31T12:09:04;3.42;;;1.23;;
49296;SDS011;35163;48.878;18.040;2023-07-31T12:11:42;3.72;;;1.23;;
49296;SDS011;35163;48.878;18.040;2023-07-31T12:14:23;4.18;;;1.55;;
49296;SDS011;35163;48.878;18.040;2023-07-31T12:17:01;3.47;;;1.10;;
49296;SDS011;35163;48.878;18.040;2023-07-31T12:19:31;4.63;;;1.40;;
49296;SDS011;35163;48.878;18.040;2023-07-31T12:21:58;3.30;;;1.40;;
49296;SDS011;35163;48.878;18.040;2023-07-31T12:24:26;3.28;;;1.17;;
49296;SDS011;35163;48.878;18.040;2023-07-31T12:26:54;3.30;;;1.20;;
49296;SDS011;35163;48.878;18.040;2023-07-31T12:29:21;5.13;;;1.55;;
49296;SDS011;35163;48.878;18.040;2023-07-31T12:31:48;7.57;;;2.05;;
49296;SDS011;35163;48.878;18.040;2023-07-31T12:34:18;6.15;;;1.33;;
49296;SDS011;35163;48.878;18.040;2023-07-31T12:36:49;5.13;;;1.35;;
49296;SDS011;35163;48.878;18.040;2023-07-31T12:39:17;4.53;;;1.42;;
49296;SDS011;35163;48.878;18.040;2023-07-31T12:41:43;4.63;;;1.40;;
49296;SDS011;35163;48.878;18.040;2023-07-31T12:44:10;8.63;;;1.48;;
49296;SDS011;35163;48.878;18.040;2023-07-31T12:46:37;2.95;;;1.08;;
49296;SDS011;35163;48.878;18.040;2023-07-31T12:49:04;5.05;;;1.20;;
49296;SDS011;35163;48.878;18.040;2023-07-31T12:51:31;3.13;;;1.20;;
49296;SDS011;35163;48.878;18.040;2023-07-31T12:53:57;5.70;;;1.27;;
49296;SDS011;35163;48.878;18.040;2023-07-31T12:56:24;4.72;;;1.35;;
49296;SDS011;35163;48.878;18.040;2023-07-31T12:58:51;5.30;;;1.30;;
49296;SDS011;35163;48.878;18.040;2023-07-31T13:01:17;3.97;;;1.20;;
49296;SDS011;35163;48.878;18.040;2023-07-31T13:03:44;2.75;;;1.40;;
49296;SDS011;35163;48.878;18.040;2023-07-31T13:06:11;5.00;;;1.60;;
49296;SDS011;35163;48.878;18.040;2023-07-31T13:08:38;2.45;;;1.40;;
49296;SDS011;35163;48.878;18.040;2023-07-31T13:11:04;6.13;;;1.40;;
49296;SDS011;35163;48.878;18.040;2023-07-31T13:13:31;3.55;;;1.15;;
49296;SDS011;35163;48.878;18.040;2023-07-31T13:15:58;3.28;;;1.10;;
49296;SDS011;35163;48.878;18.040;2023-07-31T13:18:25;3.65;;;1.30;;
49296;SDS011;35163;48.878;18.040;2023-07-31T13:20:52;4.55;;;1.20;;
49296;SDS011;35163;48.878;18.040;2023-07-31T13:23:19;7.32;;;1.38;;
49296;SDS011;35163;48.878;18.040;2023-07-31T13:25:45;4.45;;;1.40;;
49296;SDS011;35163;48.878;18.040;2023-07-31T13:28:12;4.20;;;1.23;;
49296;SDS011;35163;48.878;18.040;2023-07-31T13:30:39;4.55;;;1.35;;
49296;SDS011;35163;48.878;18.040;2023-07-31T13:33:05;3.45;;;1.17;;
49296;SDS011;35163;48.878;18.040;2023-07-31T13:35:43;6.28;;;1.50;;
49296;SDS011;35163;48.878;18.040;2023-07-31T13:38:09;10.80;;;1.73;;
49296;SDS011;35163;48.878;18.040;2023-07-31T13:40:36;3.92;;;1.40;;
49296;SDS011;35163;48.878;18.040;2023-07-31T13:43:03;5.65;;;1.48;;
49296;SDS011;35163;48.878;18.040;2023-07-31T13:45:30;3.00;;;1.40;;
49296;SDS011;35163;48.878;18.040;2023-07-31T13:47:57;4.57;;;1.05;;
49296;SDS011;35163;48.878;18.040;2023-07-31T13:50:23;3.33;;;1.30;;
49296;SDS011;35163;48.878;18.040;2023-07-31T13:52:51;6.55;;;1.45;;
49296;SDS011;35163;48.878;18.040;2023-07-31T13:55:18;8.35;;;1.23;;
49296;SDS011;35163;48.878;18.040;2023-07-31T13:57:45;5.07;;;1.60;;
49296;SDS011;35163;48.878;18.040;2023-07-31T14:00:12;6.38;;;1.58;;
49296;SDS011;35163;48.878;18.040;2023-07-31T14:02:39;5.00;;;1.48;;
49296;SDS011;35163;48.878;18.040;2023-07-31T14:05:06;5.95;;;1.23;;
49296;SDS011;35163;48.878;18.040;2023-07-31T14:07:35;3.70;;;1.42;;
49296;SDS011;35163;48.878;18.040;2023-07-31T14:10:02;4.65;;;1.20;;
49296;SDS011;35163;48.878;18.040;2023-07-31T14:12:30;3.45;;;1.20;;
49296;SDS011;35163;48.878;18.040;2023-07-31T14:15:08;5.00;;;1.35;;
49296;SDS011;35163;48.878;18.040;2023-07-31T14:17:35;4.20;;;1.50;;
49296;SDS011;35163;48.878;18.040;2023-07-31T14:20:02;7.07;;;2.40;;
49296;SDS011;35163;48.878;18.040;2023-07-31T14:22:30;5.07;;;2.63;;
49296;SDS011;35163;48.878;18.040;2023-07-31T14:24:57;8.63;;;2.00;;
49296;SDS011;35163;48.878;18.040;2023-07-31T14:27:24;6.10;;;1.80;;
49296;SDS011;35163;48.878;18.040;2023-07-31T14:29:50;4.80;;;1.67;;
49296;SDS011;35163;48.878;18.040;2023-07-31T14:32:20;7.30;;;1.67;;
49296;SDS011;35163;48.878;18.040;2023-07-31T14:34:47;3.47;;;1.15;;
49296;SDS011;35163;48.878;18.040;2023-07-31T14:37:14;3.38;;;1.10;;
49296;SDS011;35163;48.878;18.040;2023-07-31T14:39:41;4.75;;;1.38;;
49296;SDS011;35163;48.878;18.040;2023-07-31T14:42:07;4.07;;;1.27;;
49296;SDS011;35163;48.878;18.040;2023-07-31T14:44:34;4.53;;;1.20;;
49296;SDS011;35163;48.878;18.040;2023-07-31T14:47:01;5.13;;;1.15;;
49296;SDS011;35163;48.878;18.040;2023-07-31T14:49:28;4.53;;;1.23;;
49296;SDS011;35163;48.878;18.040;2023-07-31T14:51:54;4.82;;;1.35;;
49296;SDS011;35163;48.878;18.040;2023-07-31T14:54:22;7.93;;;1.42;;
49296;SDS011;35163;48.878;18.040;2023-07-31T14:56:48;4.15;;;1.50;;
49296;SDS011;35163;48.878;18.040;2023-07-31T14:59:15;5.57;;;1.30;;